createdAt,value
2019-03-24T00:01:45.372Z,31.37
2019-03-24T00:04:14.855Z,37.17
2019-03-24T00:06:44.350Z,34.58
2019-03-24T00:09:13.864Z,28.75
2019-03-24T00:11:43.295Z,34.05
2019-03-24T00:14:12.760Z,30.10
2019-03-24T00:16:42.227Z,31.93
2019-03-24T00:19:11.697Z,28.47
2019-03-24T00:21:41.312Z,29.95
2019-03-24T00:24:10.936Z,28.40
2019-03-24T00:26:40.424Z,26.00
2019-03-24T00:29:11.000Z,29.45
2019-03-24T00:31:40.868Z,32.47
2019-03-24T00:34:10.572Z,28.63
2019-03-24T00:36:40.018Z,32.17
2019-03-24T00:39:09.589Z,38.95
2019-03-24T00:41:39.114Z,35.68
2019-03-24T00:44:08.608Z,29.25
2019-03-24T00:46:38.127Z,31.07
2019-03-24T00:49:07.855Z,30.70
2019-03-24T00:51:37.355Z,31.75
2019-03-24T00:54:07.109Z,33.63
2019-03-24T00:56:37.059Z,36.77
2019-03-24T00:59:06.546Z,34.80
2019-03-24T01:01:36.071Z,31.42
2019-03-24T01:04:05.782Z,36.23
2019-03-24T01:06:35.429Z,28.95
2019-03-24T01:09:07.662Z,31.73
2019-03-24T01:11:37.292Z,38.00
2019-03-24T01:14:07.057Z,27.82
2019-03-24T01:16:36.684Z,32.48
2019-03-24T01:19:06.335Z,32.15
2019-03-24T01:21:36.074Z,25.15
2019-03-24T01:24:07.157Z,37.20
2019-03-24T01:26:36.725Z,27.60
2019-03-24T01:29:06.320Z,33.15
2019-03-24T01:31:35.940Z,29.92
2019-03-24T01:34:05.580Z,29.37
2019-03-24T01:36:35.149Z,31.62
2019-03-24T01:39:10.103Z,42.30
2019-03-24T01:41:39.573Z,32.20
2019-03-24T01:44:09.157Z,29.00
2019-03-24T01:46:38.599Z,33.35
2019-03-24T01:49:08.712Z,31.77
2019-03-24T01:51:38.252Z,28.45
2019-03-24T01:54:08.316Z,29.50
2019-03-24T01:56:37.985Z,33.42
2019-03-24T01:59:07.731Z,35.17
2019-03-24T02:01:37.459Z,34.23
2019-03-24T02:04:06.893Z,28.83
2019-03-24T02:06:38.569Z,34.73
2019-03-24T02:09:08.420Z,38.20
2019-03-24T02:11:38.159Z,32.58
2019-03-24T02:14:07.961Z,30.77
2019-03-24T02:16:37.767Z,35.50
2019-03-24T02:19:07.235Z,34.53
2019-03-24T02:21:36.699Z,30.40
2019-03-24T02:24:06.244Z,25.30
2019-03-24T02:26:35.903Z,29.45
2019-03-24T02:29:06.457Z,28.57
2019-03-24T02:31:36.006Z,35.17
2019-03-24T02:34:05.493Z,30.30
2019-03-24T02:36:35.046Z,38.35
2019-03-24T02:39:09.655Z,37.88
2019-03-24T02:41:39.130Z,36.90
2019-03-24T02:44:08.632Z,33.30
2019-03-24T02:46:38.291Z,38.30
2019-03-24T02:49:07.946Z,37.37
2019-03-24T02:51:38.434Z,35.30
2019-03-24T02:54:08.042Z,32.50
2019-03-24T02:56:37.587Z,31.45
2019-03-24T02:59:07.372Z,36.23
2019-03-24T03:01:37.037Z,33.70
2019-03-24T03:04:06.628Z,36.83
2019-03-24T03:06:36.172Z,31.27
2019-03-24T03:09:06.454Z,27.73
2019-03-24T03:11:37.093Z,30.23
2019-03-24T03:14:06.756Z,33.10
2019-03-24T03:16:38.904Z,30.68
2019-03-24T03:19:07.698Z,31.37
2019-03-24T03:21:38.421Z,34.15
2019-03-24T03:24:08.213Z,31.20
2019-03-24T03:26:37.712Z,28.80
2019-03-24T03:29:07.331Z,32.85
2019-03-24T03:31:36.772Z,33.45
2019-03-24T03:34:06.329Z,34.53
2019-03-24T03:36:36.060Z,39.25
2019-03-24T03:39:07.594Z,33.70
2019-03-24T03:41:37.294Z,31.37
2019-03-24T03:44:06.948Z,33.83
2019-03-24T03:46:36.543Z,38.45
2019-03-24T03:49:05.987Z,31.23
2019-03-24T03:51:35.463Z,30.52
2019-03-24T03:54:05.039Z,30.50
2019-03-24T03:56:34.536Z,33.30
2019-03-24T03:59:04.436Z,38.73
2019-03-24T04:01:35.131Z,30.65
2019-03-24T04:04:04.819Z,43.10
2019-03-24T04:06:35.567Z,37.23
2019-03-24T04:09:06.485Z,38.92
2019-03-24T04:11:36.060Z,32.95
2019-03-24T04:14:05.573Z,35.52
2019-03-24T04:16:35.057Z,37.75
2019-03-24T04:19:04.600Z,40.45
2019-03-24T04:21:34.155Z,36.65
2019-03-24T04:24:04.582Z,34.54
2019-03-24T04:26:34.115Z,35.70
2019-03-24T04:29:04.344Z,38.08
2019-03-24T04:31:33.956Z,36.13
2019-03-24T04:34:04.490Z,36.33
2019-03-24T04:36:34.010Z,38.70
2019-03-24T04:39:06.415Z,36.95
2019-03-24T04:41:35.865Z,32.38
2019-03-24T04:44:05.343Z,38.88
2019-03-24T04:46:34.823Z,30.27
2019-03-24T04:49:04.433Z,34.73
2019-03-24T04:51:34.079Z,34.18
2019-03-24T04:54:04.676Z,35.06
2019-03-24T04:56:34.146Z,33.63
2019-03-24T04:59:04.427Z,38.95
2019-03-24T05:01:33.894Z,33.18
2019-03-24T05:04:04.425Z,40.65
2019-03-24T05:06:34.042Z,34.88
2019-03-24T05:09:05.424Z,38.73
2019-03-24T05:11:34.870Z,37.67
2019-03-24T05:14:04.563Z,33.75
2019-03-24T05:16:34.081Z,28.00
2019-03-24T05:19:04.450Z,33.65
2019-03-24T05:21:33.955Z,40.95
2019-03-24T05:24:03.405Z,43.63
2019-03-24T05:26:32.843Z,37.00
2019-03-24T05:29:02.333Z,74.40
2019-03-24T05:31:31.774Z,102.30
2019-03-24T05:34:02.589Z,67.78
2019-03-24T05:36:32.058Z,105.15
2019-03-24T05:39:01.536Z,106.57
2019-03-24T05:41:31.788Z,74.55
2019-03-24T05:44:01.227Z,87.57
2019-03-24T05:46:30.711Z,71.72
2019-03-24T05:49:00.187Z,59.18
2019-03-24T05:51:29.706Z,72.75
2019-03-24T05:53:59.200Z,94.67
2019-03-24T05:56:28.797Z,84.15
2019-03-24T05:58:59.413Z,51.15
2019-03-24T06:01:28.967Z,44.30
2019-03-24T06:03:58.426Z,76.80
2019-03-24T06:06:27.896Z,50.63
2019-03-24T06:08:57.339Z,46.98
2019-03-24T06:11:26.824Z,35.50
2019-03-24T06:13:56.290Z,73.35
2019-03-24T06:16:25.749Z,121.17
2019-03-24T06:18:55.257Z,58.08
2019-03-24T06:21:24.820Z,77.62
2019-03-24T06:23:54.367Z,97.42
2019-03-24T06:26:24.812Z,114.40
2019-03-24T06:28:54.276Z,168.62
2019-03-24T06:31:23.768Z,43.68
2019-03-24T06:33:53.264Z,40.50
2019-03-24T06:36:22.730Z,55.58
2019-03-24T06:38:52.210Z,72.10
2019-03-24T06:41:21.671Z,48.63
2019-03-24T06:43:51.205Z,84.72
2019-03-24T06:46:20.748Z,74.47
2019-03-24T06:48:51.289Z,74.77
2019-03-24T06:51:20.734Z,104.70
2019-03-24T06:53:50.219Z,75.83
2019-03-24T06:56:19.653Z,78.60
2019-03-24T06:58:49.147Z,33.35
2019-03-24T07:01:18.707Z,72.87
2019-03-24T07:03:48.321Z,69.17
2019-03-24T07:06:17.882Z,25.43
2019-03-24T07:08:47.560Z,49.83
2019-03-24T07:11:16.999Z,51.73
2019-03-24T07:13:46.469Z,89.15
2019-03-24T07:16:15.943Z,57.10
2019-03-24T07:18:47.722Z,24.32
2019-03-24T07:21:17.203Z,66.60
2019-03-24T07:23:46.690Z,45.70
2019-03-24T07:26:16.168Z,29.63
2019-03-24T07:28:45.600Z,34.98
2019-03-24T07:31:15.073Z,23.70
2019-03-24T07:33:44.579Z,42.50
2019-03-24T07:36:14.057Z,29.82
2019-03-24T07:38:43.568Z,23.10
2019-03-24T07:41:13.147Z,19.45
2019-03-24T07:43:42.869Z,26.77
2019-03-24T07:46:12.389Z,18.62
2019-03-24T07:48:41.958Z,17.80
2019-03-24T07:51:11.769Z,20.80
2019-03-24T07:53:41.224Z,17.17
2019-03-24T07:56:10.799Z,20.08
2019-03-24T07:58:40.245Z,18.87
2019-03-24T08:01:09.760Z,22.85
2019-03-24T08:03:39.345Z,18.10
2019-03-24T08:06:08.799Z,20.70
2019-03-24T08:08:44.154Z,22.48
2019-03-24T08:11:09.490Z,28.52
2019-03-24T08:13:39.026Z,28.00
2019-03-24T08:16:08.566Z,30.38
2019-03-24T08:18:38.502Z,24.75
2019-03-24T08:21:07.974Z,27.40
2019-03-24T08:23:37.427Z,26.63
2019-03-24T08:26:07.137Z,26.12
2019-03-24T08:28:36.614Z,30.57
2019-03-24T08:31:06.068Z,29.72
2019-03-24T08:33:35.576Z,23.77
2019-03-24T08:36:05.121Z,25.77
2019-03-24T08:38:34.559Z,23.77
2019-03-24T08:41:05.365Z,22.07
2019-03-24T08:43:34.788Z,25.62
2019-03-24T08:46:04.638Z,24.23
2019-03-24T08:48:40.875Z,26.95
2019-03-24T08:51:05.289Z,24.05
2019-03-24T08:53:34.769Z,27.45
2019-03-24T08:56:04.717Z,25.27
2019-03-24T08:58:34.453Z,23.05
2019-03-24T09:01:04.927Z,22.87
2019-03-24T09:03:34.536Z,20.55
2019-03-24T09:06:05.948Z,22.04
2019-03-24T09:08:35.590Z,20.55
2019-03-24T09:11:05.145Z,17.92
2019-03-24T09:13:34.691Z,17.90
2019-03-24T09:16:04.574Z,20.05
2019-03-24T09:18:34.076Z,17.70
2019-03-24T09:21:04.435Z,23.00
2019-03-24T09:23:33.954Z,20.48
2019-03-24T09:26:04.466Z,22.60
2019-03-24T09:28:33.916Z,20.43
2019-03-24T09:31:04.402Z,22.50
2019-03-24T09:33:33.917Z,22.62
2019-03-24T09:36:04.494Z,22.28
2019-03-24T09:38:34.942Z,17.32
2019-03-24T09:41:05.281Z,21.33
2019-03-24T09:43:35.191Z,19.42
2019-03-24T09:46:04.742Z,22.15
2019-03-24T09:48:34.327Z,21.17
2019-03-24T09:51:04.550Z,21.00
2019-03-24T09:53:34.105Z,20.32
2019-03-24T09:56:04.561Z,22.20
2019-03-24T09:58:34.105Z,20.60
2019-03-24T10:01:04.388Z,23.15
2019-03-24T10:03:33.852Z,22.40
2019-03-24T10:06:03.375Z,22.50
2019-03-24T10:08:32.912Z,21.62
2019-03-24T10:11:02.470Z,17.07
2019-03-24T10:13:31.935Z,18.65
2019-03-24T10:16:01.697Z,19.27
2019-03-24T10:18:31.380Z,17.32
2019-03-24T10:21:01.009Z,17.05
2019-03-24T10:23:30.491Z,15.05
2019-03-24T10:25:59.937Z,19.27
2019-03-24T10:28:29.410Z,18.00
2019-03-24T10:30:59.038Z,17.62
2019-03-24T10:33:28.538Z,17.95
2019-03-24T10:35:58.004Z,16.05
2019-03-24T10:38:27.516Z,14.35
2019-03-24T10:40:56.952Z,17.48
2019-03-24T10:43:26.491Z,18.37
2019-03-24T10:45:58.955Z,17.02
2019-03-24T10:48:33.687Z,19.23
2019-03-24T10:50:59.621Z,17.48
2019-03-24T10:53:29.146Z,15.93
2019-03-24T10:56:07.684Z,15.53
2019-03-24T10:58:37.889Z,15.05
2019-03-24T11:01:07.291Z,16.07
2019-03-24T11:03:37.539Z,15.43
2019-03-24T11:06:10.029Z,18.10
2019-03-24T11:08:39.694Z,13.93
2019-03-24T11:11:09.200Z,15.80
2019-03-24T11:13:38.680Z,14.73
2019-03-24T11:16:08.173Z,10.80
2019-03-24T11:18:37.805Z,11.33
2019-03-24T11:21:08.909Z,17.00
2019-03-24T11:23:38.603Z,14.38
2019-03-24T11:26:11.781Z,16.70
2019-03-24T11:28:43.648Z,16.12
2019-03-24T11:31:13.076Z,14.85
2019-03-24T11:33:42.768Z,10.32
2019-03-24T11:36:12.250Z,16.27
2019-03-24T11:38:41.785Z,17.85
2019-03-24T11:41:11.268Z,15.30
2019-03-24T11:43:40.729Z,12.55
2019-03-24T11:46:10.296Z,12.77
2019-03-24T11:48:39.843Z,13.88
2019-03-24T11:51:09.462Z,13.80
2019-03-24T11:53:40.079Z,13.15
2019-03-24T11:56:09.772Z,12.33
2019-03-24T11:58:39.403Z,14.80
2019-03-24T12:01:10.507Z,13.85
2019-03-24T12:03:40.374Z,13.85
2019-03-24T12:06:14.512Z,13.75
2019-03-24T12:08:42.215Z,29.57
2019-03-24T12:11:11.657Z,11.15
2019-03-24T12:13:41.131Z,13.45
2019-03-24T12:16:10.649Z,10.45
2019-03-24T12:18:40.455Z,9.30
2019-03-24T12:21:09.907Z,9.53
2019-03-24T12:23:40.148Z,15.07
2019-03-24T12:26:09.618Z,13.88
2019-03-24T12:28:39.092Z,13.75
2019-03-24T12:31:08.522Z,10.62
2019-03-24T12:33:38.000Z,13.68
2019-03-24T12:36:07.500Z,14.35
2019-03-24T12:38:37.172Z,11.48
2019-03-24T12:41:07.030Z,13.28
2019-03-24T12:43:36.491Z,13.43
2019-03-24T12:46:06.328Z,13.00
2019-03-24T12:48:36.106Z,15.70
2019-03-24T12:51:05.745Z,15.68
2019-03-24T12:53:35.377Z,17.85
2019-03-24T12:56:16.312Z,14.33
2019-03-24T12:58:40.977Z,15.38
2019-03-24T13:01:13.891Z,15.85
2019-03-24T13:03:43.411Z,16.93
2019-03-24T13:06:12.819Z,16.52
2019-03-24T13:08:42.448Z,12.63
2019-03-24T13:11:11.884Z,17.87
2019-03-24T13:13:41.565Z,18.23
2019-03-24T13:16:11.068Z,18.67
2019-03-24T13:18:41.853Z,19.42
2019-03-24T13:21:11.353Z,17.93
2019-03-24T13:23:40.920Z,19.25
2019-03-24T13:26:10.436Z,15.77
2019-03-24T13:28:40.061Z,16.40
2019-03-24T13:31:09.529Z,18.05
2019-03-24T13:33:39.007Z,16.97
2019-03-24T13:36:10.629Z,17.65
2019-03-24T13:38:40.183Z,15.05
2019-03-24T13:41:09.717Z,19.55
2019-03-24T13:43:39.308Z,15.45
2019-03-24T13:46:08.886Z,14.68
2019-03-24T13:48:38.375Z,12.97
2019-03-24T13:51:07.949Z,14.87
2019-03-24T13:53:37.409Z,12.98
2019-03-24T13:56:08.968Z,15.05
2019-03-24T13:58:38.504Z,15.65
2019-03-24T14:01:09.648Z,14.18
2019-03-24T14:03:39.449Z,11.63
2019-03-24T14:06:08.915Z,15.00
2019-03-24T14:08:38.358Z,8.80
2019-03-24T14:11:07.948Z,10.98
2019-03-24T14:13:37.481Z,10.23
2019-03-24T14:16:07.099Z,14.18
2019-03-24T14:18:36.539Z,15.68
2019-03-24T14:21:06.225Z,11.73
2019-03-24T14:23:36.077Z,12.13
2019-03-24T14:26:05.655Z,12.70
2019-03-24T14:28:35.157Z,14.85
2019-03-24T14:31:04.835Z,14.95
2019-03-24T14:33:34.296Z,14.95
2019-03-24T14:36:04.388Z,17.25
2019-03-24T14:38:33.906Z,19.17
2019-03-24T14:41:05.017Z,16.93
2019-03-24T14:43:34.481Z,16.62
2019-03-24T14:46:04.563Z,19.65
2019-03-24T14:48:36.222Z,17.10
2019-03-24T14:51:06.647Z,13.90
2019-03-24T14:53:36.402Z,17.15
2019-03-24T14:56:05.960Z,15.28
2019-03-24T14:58:35.545Z,17.07
2019-03-24T15:01:05.223Z,11.63
2019-03-24T15:03:34.808Z,17.87
2019-03-24T15:06:05.180Z,16.40
2019-03-24T15:08:35.662Z,13.22
2019-03-24T15:11:07.120Z,11.57
2019-03-24T15:13:36.784Z,12.70
2019-03-24T15:16:06.300Z,11.10
2019-03-24T15:18:36.006Z,10.85
2019-03-24T15:21:06.208Z,12.85
2019-03-24T15:23:35.730Z,10.78
2019-03-24T15:26:05.299Z,10.65
2019-03-24T15:28:34.744Z,14.93
2019-03-24T15:31:04.582Z,9.95
2019-03-24T15:33:34.098Z,15.23
2019-03-24T15:36:04.746Z,10.85
2019-03-24T15:38:35.181Z,10.18
2019-03-24T15:41:04.770Z,9.30
2019-03-24T15:43:34.228Z,8.73
2019-03-24T15:46:04.391Z,10.28
2019-03-24T15:48:35.407Z,8.88
2019-03-24T15:51:16.053Z,11.25
2019-03-24T15:53:36.081Z,8.93
2019-03-24T15:56:05.536Z,7.22
2019-03-24T15:58:35.261Z,10.08
2019-03-24T16:01:04.929Z,9.33
2019-03-24T16:03:34.351Z,6.65
2019-03-24T16:06:04.447Z,6.03
2019-03-24T16:08:34.856Z,8.38
2019-03-24T16:11:04.450Z,8.10
2019-03-24T16:13:33.926Z,7.33
2019-03-24T16:16:03.446Z,6.97
2019-03-24T16:18:34.062Z,7.90
2019-03-24T16:21:04.494Z,10.25
2019-03-24T16:23:42.291Z,10.15
2019-03-24T16:26:11.777Z,9.60
2019-03-24T16:28:41.213Z,10.32
2019-03-24T16:31:12.386Z,11.22
2019-03-24T16:33:41.926Z,14.30
2019-03-24T16:36:11.382Z,12.40
2019-03-24T16:38:48.757Z,10.63
2019-03-24T16:41:13.592Z,7.53
2019-03-24T16:43:44.142Z,8.45
2019-03-24T16:46:13.609Z,9.23
2019-03-24T16:48:43.095Z,8.58
2019-03-24T16:51:12.761Z,7.10
2019-03-24T16:53:42.494Z,6.43
2019-03-24T16:56:12.100Z,6.87
2019-03-24T16:58:41.625Z,4.83
2019-03-24T17:01:11.148Z,5.58
2019-03-24T17:03:40.687Z,4.78
2019-03-24T17:06:11.740Z,4.70
2019-03-24T17:08:41.319Z,5.20
2019-03-24T17:11:10.771Z,4.00
2019-03-24T17:13:40.395Z,4.65
2019-03-24T17:16:10.012Z,5.08
2019-03-24T17:18:39.643Z,4.62
2019-03-24T17:21:10.343Z,4.22
2019-03-24T17:23:41.515Z,3.87
2019-03-24T17:26:11.138Z,4.90
2019-03-24T17:28:40.594Z,2.87
2019-03-24T17:31:10.026Z,3.95
2019-03-24T17:33:39.617Z,4.55
2019-03-24T17:36:09.228Z,5.80
2019-03-24T17:38:38.866Z,5.17
2019-03-24T17:41:08.819Z,3.53
2019-03-24T17:43:38.324Z,5.17
2019-03-24T17:46:08.132Z,4.15
2019-03-24T17:48:37.567Z,6.87
2019-03-24T17:51:07.106Z,5.33
2019-03-24T17:53:36.613Z,7.20
2019-03-24T17:56:06.212Z,7.90
2019-03-24T17:58:35.700Z,4.90
2019-03-24T18:01:05.366Z,3.90
2019-03-24T18:03:34.911Z,8.65
2019-03-24T18:06:04.602Z,5.37
2019-03-24T18:08:54.181Z,7.47
2019-03-24T18:15:37.495Z,6.83
2019-03-24T18:18:17.639Z,8.57
2019-03-24T18:20:47.492Z,7.65
2019-03-24T18:23:17.326Z,6.65
2019-03-24T18:25:47.124Z,7.97
2019-03-24T18:28:21.945Z,8.30
2019-03-24T18:30:51.986Z,9.18
2019-03-24T18:33:21.894Z,8.58
2019-03-24T18:35:51.801Z,16.07
2019-03-24T18:38:21.400Z,9.08
2019-03-24T18:40:50.915Z,10.70
2019-03-24T18:43:21.546Z,13.03
2019-03-24T18:45:51.083Z,9.20
2019-03-24T18:48:20.670Z,14.73
2019-03-24T18:50:51.793Z,43.92
2019-03-24T18:53:21.246Z,11.43
2019-03-24T18:55:50.691Z,9.15
2019-03-24T18:58:20.174Z,9.25
2019-03-24T19:00:50.504Z,7.42
2019-03-24T19:03:19.994Z,8.73
2019-03-24T19:05:49.423Z,10.48
2019-03-24T19:08:18.937Z,10.68
2019-03-24T19:10:48.375Z,9.63
2019-03-24T19:13:18.875Z,11.70
2019-03-24T19:15:48.370Z,10.70
2019-03-24T19:18:17.870Z,8.43
2019-03-24T19:20:47.336Z,11.05
2019-03-24T19:23:18.509Z,10.95
2019-03-24T19:25:48.276Z,17.65
2019-03-24T19:28:24.713Z,10.63
2019-03-24T19:30:54.174Z,11.70
2019-03-24T19:33:23.810Z,9.90
2019-03-24T19:35:53.502Z,9.50
2019-03-24T19:38:24.508Z,8.53
2019-03-24T19:40:54.212Z,9.68
2019-03-24T19:43:23.962Z,8.23
2019-03-24T19:45:53.432Z,8.75
2019-03-24T19:48:23.127Z,11.40
2019-03-24T19:50:52.896Z,9.63
2019-03-24T19:53:23.363Z,12.37
2019-03-24T19:55:53.111Z,11.55
2019-03-24T19:58:22.783Z,8.83
2019-03-24T20:00:53.388Z,11.03
2019-03-24T20:03:22.917Z,8.38
2019-03-24T20:05:52.711Z,12.25
2019-03-24T20:08:22.565Z,9.88
2019-03-24T20:10:56.075Z,9.50
2019-03-24T20:13:30.340Z,9.50
2019-03-24T20:16:03.191Z,10.85
2019-03-24T20:18:35.064Z,9.08
2019-03-24T20:21:06.703Z,10.50
2019-03-24T20:23:42.575Z,10.10
2019-03-24T20:26:12.668Z,10.08
2019-03-24T20:28:43.158Z,10.13
2019-03-24T20:31:12.965Z,11.73
2019-03-24T20:33:43.581Z,12.40
2019-03-24T20:36:14.152Z,10.82
2019-03-24T20:38:43.885Z,8.73
2019-03-24T20:41:14.731Z,9.60
2019-03-24T20:43:44.202Z,8.83
2019-03-24T20:46:13.929Z,6.83
2019-03-24T20:48:43.466Z,10.58
2019-03-24T20:51:13.586Z,8.45
2019-03-24T20:53:43.175Z,7.03
2019-03-24T20:56:13.150Z,7.62
2019-03-24T20:58:43.092Z,8.20
2019-03-24T21:01:13.130Z,10.85
2019-03-24T21:03:43.225Z,10.13
2019-03-24T21:06:12.966Z,10.08
2019-03-24T21:08:42.622Z,7.43
2019-03-24T21:11:12.923Z,8.23
2019-03-24T21:13:45.188Z,11.68
2019-03-24T21:16:14.169Z,9.00
2019-03-24T21:18:44.870Z,10.18
2019-03-24T21:21:14.322Z,10.00
2019-03-24T21:23:44.595Z,10.08
2019-03-24T21:26:14.286Z,10.45
2019-03-24T21:28:43.881Z,7.70
2019-03-24T21:31:13.385Z,9.20
2019-03-24T21:33:43.034Z,8.60
2019-03-24T21:36:12.765Z,9.43
2019-03-24T21:38:42.544Z,12.73
2019-03-24T21:41:12.016Z,10.85
2019-03-24T21:43:41.755Z,8.68
2019-03-24T21:46:11.377Z,13.43
2019-03-24T21:48:40.860Z,11.97
2019-03-24T21:51:10.464Z,9.25
2019-03-24T21:53:41.062Z,12.30
2019-03-24T21:56:10.726Z,9.40
2019-03-24T21:58:40.208Z,11.20
2019-03-24T22:01:09.811Z,16.35
2019-03-24T22:03:40.928Z,10.95
2019-03-24T22:06:10.380Z,13.43
2019-03-24T22:08:39.973Z,13.18
2019-03-24T22:11:12.289Z,10.27
2019-03-24T22:13:41.941Z,10.48
2019-03-24T22:16:11.463Z,14.30
2019-03-24T22:18:40.939Z,10.95
2019-03-24T22:21:10.446Z,16.53
2019-03-24T22:23:40.025Z,14.75
2019-03-24T22:26:09.471Z,10.85
2019-03-24T22:28:40.226Z,11.35
2019-03-24T22:31:12.987Z,17.98
2019-03-24T22:33:42.595Z,14.70
2019-03-24T22:36:12.354Z,11.33
2019-03-24T22:38:42.348Z,10.58
2019-03-24T22:41:12.156Z,9.98
2019-03-24T22:43:41.633Z,10.72
2019-03-24T22:46:11.082Z,16.12
2019-03-24T22:48:40.564Z,10.65
2019-03-24T22:51:10.323Z,11.78
2019-03-24T22:53:39.964Z,11.63
2019-03-24T22:56:09.725Z,13.30
2019-03-24T22:58:39.325Z,14.40
2019-03-24T23:01:09.298Z,12.80
2019-03-24T23:03:40.699Z,9.25
2019-03-24T23:06:11.404Z,10.90
2019-03-24T23:08:40.875Z,15.10
2019-03-24T23:11:10.507Z,10.70
2019-03-24T23:13:40.169Z,17.20
2019-03-24T23:16:10.622Z,12.68
2019-03-24T23:18:40.156Z,12.88
2019-03-24T23:21:09.713Z,13.80
2019-03-24T23:23:39.261Z,14.70
2019-03-24T23:26:08.711Z,11.74
2019-03-24T23:28:38.248Z,13.35
2019-03-24T23:31:07.799Z,14.55
2019-03-24T23:33:37.278Z,12.58
2019-03-24T23:36:07.118Z,10.00
2019-03-24T23:38:36.900Z,10.35
2019-03-24T23:41:06.631Z,14.25
2019-03-24T23:43:36.344Z,10.70
2019-03-24T23:46:05.916Z,13.48
2019-03-24T23:48:35.415Z,14.07
2019-03-24T23:51:04.973Z,9.13
2019-03-24T23:53:34.430Z,17.07
2019-03-24T23:56:04.615Z,9.70
2019-03-24T23:58:40.699Z,12.63
